Time;durP1;ratioP1;P1;durP2;ratioP2;P2;SDS_P1;SDS_P2;PMS_P1;PMS_P2;Temp;Humidity;BMP_temperature;BMP_pressure;BME280_temperature;BME280_humidity;BME280_pressure;Samples;Min_cycle;Max_cycle;Signal;HPM_P1;HPM_P2
2023/07/16 00:00:32;;;;;;;7.87;5.70;;;;;;;23.91;100.00;101430.47;2081934;28;20193;-65
2023/07/16 00:01:32;;;;;;;7.87;5.30;;;;;;;23.98;100.00;101434.91;2081688;28;20223;-65
2023/07/16 00:02:33;;;;;;;7.23;5.93;;;;;;;24.06;100.00;101442.41;2081831;28;20239;-65
2023/07/16 00:03:33;;;;;;;6.40;5.70;;;;;;;23.55;100.00;101354.84;2081509;28;20605;-65
2023/07/16 00:04:34;;;;;;;9.90;5.60;;;;;;;24.09;100.00;101441.41;2082061;28;20177;-65
2023/07/16 00:05:36;;;;;;;7.13;5.80;;;;;;;24.12;100.00;101442.47;2081973;28;20192;-66
2023/07/16 00:06:36;;;;;;;6.67;5.93;;;;;;;24.13;100.00;101438.34;2082019;28;20184;-65
2023/07/16 00:07:37;;;;;;;6.63;5.83;;;;;;;24.05;100.00;101425.97;2081866;28;20196;-65
2023/07/16 00:08:37;;;;;;;6.40;5.70;;;;;;;24.11;100.00;101436.00;2081965;28;20658;-65
2023/07/16 00:09:37;;;;;;;8.17;5.70;;;;;;;24.14;100.00;101443.50;2081842;28;20600;-65
2023/07/16 00:10:38;;;;;;;9.87;5.67;;;;;;;23.99;100.00;101422.28;2081998;28;20177;-65
2023/07/16 00:11:38;;;;;;;9.07;5.63;;;;;;;24.14;100.00;101439.88;2081609;28;20246;-65
2023/07/16 00:12:39;;;;;;;7.50;6.20;;;;;;;24.18;100.00;101437.59;2081939;28;20177;-65
2023/07/16 00:13:45;;;;;;;9.47;6.10;;;;;;;24.20;100.00;101443.53;2081979;28;20195;-65
2023/07/16 00:14:47;;;;;;;8.60;5.57;;;;;;;24.20;100.00;101438.63;2082000;28;20243;-65
2023/07/16 00:15:47;;;;;;;12.33;6.53;;;;;;;24.23;100.00;101446.13;2081266;28;20208;-65
2023/07/16 00:16:48;;;;;;;9.10;5.97;;;;;;;24.08;100.00;101424.94;2081272;28;20220;-65
2023/07/16 00:17:48;;;;;;;7.00;5.50;;;;;;;24.24;100.00;101446.88;2081574;28;20181;-65
2023/07/16 00:18:48;;;;;;;8.27;5.80;;;;;;;24.23;100.00;101440.47;2081790;28;21133;-65
2023/07/16 00:19:49;;;;;;;6.70;6.00;;;;;;;24.21;100.00;101439.44;2081994;28;20169;-65
2023/07/16 00:20:49;;;;;;;6.27;5.20;;;;;;;24.17;100.00;101442.50;2081933;28;20272;-65
2023/07/16 00:21:50;;;;;;;8.50;5.77;;;;;;;24.02;100.00;101444.72;2081570;28;20252;-65
2023/07/16 00:22:51;;;;;;;6.90;6.10;;;;;;;24.04;100.00;101435.72;2081714;28;20228;-65
2023/07/16 00:23:51;;;;;;;7.10;5.30;;;;;;;24.01;100.00;101439.56;2081921;28;20188;-65
2023/07/16 00:24:52;;;;;;;11.00;5.90;;;;;;;24.03;100.00;101443.44;2081798;28;20863;-65
2023/07/16 00:25:52;;;;;;;8.63;5.80;;;;;;;24.05;100.00;101442.94;2081819;28;20662;-65
2023/07/16 00:26:53;;;;;;;8.00;5.60;;;;;;;23.84;100.00;101416.03;2081951;28;20546;-65
2023/07/16 00:27:53;;;;;;;6.30;5.53;;;;;;;23.99;100.00;101437.25;2081693;28;20190;-66
2023/07/16 00:28:54;;;;;;;9.00;5.73;;;;;;;23.99;100.00;101437.25;2081502;28;20173;-65
2023/07/16 00:29:54;;;;;;;5.73;5.10;;;;;;;24.01;100.00;101436.75;2082099;28;20519;-66
2023/07/16 00:30:55;;;;;;;7.37;5.60;;;;;;;23.73;100.00;101401.78;2081138;28;20184;-65
2023/07/16 00:31:55;;;;;;;7.97;5.50;;;;;;;23.91;100.00;101432.56;2081173;28;20196;-65
2023/07/16 00:32:55;;;;;;;8.83;5.47;;;;;;;23.93;100.00;101436.44;2081616;28;20272;-65
2023/07/16 00:33:56;;;;;;;6.87;5.37;;;;;;;23.94;100.00;101437.97;2081509;28;20267;-65
2023/07/16 00:34:56;;;;;;;7.93;5.80;;;;;;;23.57;100.00;101376.97;2080467;28;20185;-65
2023/07/16 00:35:57;;;;;;;9.23;5.67;;;;;;;23.94;100.00;101434.34;2081758;28;20173;-65
2023/07/16 00:37:01;;;;;;;5.80;5.20;;;;;;;23.95;100.00;101435.94;2081624;28;20202;-65
2023/07/16 00:38:01;;;;;;;6.70;5.60;;;;;;;23.93;100.00;101438.47;2081613;28;20176;-65
2023/07/16 00:39:02;;;;;;;9.33;6.03;;;;;;;23.93;100.00;101439.25;2081957;28;20721;-65
2023/07/16 00:40:04;;;;;;;9.83;6.27;;;;;;;23.91;100.00;101436.16;2081764;28;20219;-65
2023/07/16 00:41:04;;;;;;;10.47;5.90;;;;;;;23.91;100.00;101436.16;2079756;28;20200;-65
2023/07/16 00:42:04;;;;;;;7.67;6.07;;;;;;;23.88;100.00;101442.00;2081738;28;20189;-66
2023/07/16 00:43:05;;;;;;;6.80;6.07;;;;;;;23.84;100.00;101439.44;2081452;28;20181;-65
2023/07/16 00:44:05;;;;;;;9.77;5.70;;;;;;;23.87;100.00;101441.25;2081771;28;20278;-65
2023/07/16 00:45:13;;;;;;;7.13;5.90;;;;;;;23.89;100.00;101432.28;2081428;28;20252;-65
2023/07/16 00:46:14;;;;;;;7.87;6.03;;;;;;;23.69;100.00;101398.44;2081511;28;20618;-65
2023/07/16 00:47:14;;;;;;;7.17;5.70;;;;;;;23.90;100.00;101428.19;2081813;28;20626;-65
2023/07/16 00:48:15;;;;;;;8.47;5.60;;;;;;;23.13;100.00;101317.25;2081740;28;20184;-66
2023/07/16 00:49:16;;;;;;;7.50;5.90;;;;;;;23.93;100.00;101432.81;2081296;28;20539;-65
2023/07/16 00:50:16;;;;;;;7.43;5.70;;;;;;;23.97;100.00;101436.19;2081623;28;20631;-65
2023/07/16 00:51:18;;;;;;;13.23;5.77;;;;;;;23.96;100.00;101432.56;2081363;28;20235;-65
2023/07/16 00:52:22;;;;;;;8.53;6.00;;;;;;;23.98;100.00;101432.06;2081422;28;20242;-65
2023/07/16 00:53:23;;;;;;;9.20;6.03;;;;;;;23.99;100.00;101434.41;2081750;28;20185;-65
2023/07/16 00:54:23;;;;;;;6.80;5.80;;;;;;;24.01;100.00;101439.56;2081610;28;20189;-65
2023/07/16 00:55:24;;;;;;;8.30;5.87;;;;;;;24.02;100.00;101432.63;2081726;28;20248;-65
2023/07/16 00:56:24;;;;;;;9.13;6.30;;;;;;;24.03;100.00;101434.16;2081471;28;20181;-65
2023/07/16 00:57:25;;;;;;;7.33;6.53;;;;;;;24.01;100.00;101433.91;2081761;28;20212;-66
2023/07/16 00:58:25;;;;;;;8.80;6.27;;;;;;;24.04;100.00;101430.84;2081266;28;20203;-65
2023/07/16 00:59:26;;;;;;;9.77;6.40;;;;;;;24.06;100.00;101436.75;2081536;28;20193;-65
2023/07/16 01:00:26;;;;;;;9.43;6.50;;;;;;;23.64;100.00;101365.22;2081562;28;20273;-65
2023/07/16 01:01:27;;;;;;;9.53;6.53;;;;;;;23.33;100.00;101317.16;2081387;28;20193;-65
2023/07/16 01:02:27;;;;;;;9.57;7.00;;;;;;;24.06;100.00;101431.09;2081544;28;20667;-65
2023/07/16 01:03:28;;;;;;;10.17;6.60;;;;;;;23.27;100.00;101316.31;2080935;28;20205;-65
2023/07/16 01:04:28;;;;;;;7.70;5.87;;;;;;;23.96;100.00;101428.97;2081546;28;20184;-65
2023/07/16 01:05:36;;;;;;;9.67;6.50;;;;;;;23.97;100.00;101430.53;2081512;28;20255;-65
2023/07/16 01:06:40;;;;;;;8.37;6.17;;;;;;;23.98;100.00;101438.53;2081762;28;20267;-65
2023/07/16 01:07:54;;;;;;;8.10;6.03;;;;;;;23.98;100.00;101435.69;2081671;28;20184;-65
2023/07/16 01:09:00;;;;;;;7.80;5.93;;;;;;;23.89;100.00;101433.06;2073672;28;20200;-65
2023/07/16 01:10:01;;;;;;;7.73;6.17;;;;;;;23.87;100.00;101434.81;2081124;28;20208;-65
2023/07/16 01:11:03;;;;;;;8.13;5.93;;;;;;;23.87;100.00;101434.81;2081361;28;20196;-65
2023/07/16 01:12:05;;;;;;;7.03;5.40;;;;;;;23.85;100.00;101435.31;2081471;28;20187;-65
2023/07/16 01:13:05;;;;;;;7.60;5.87;;;;;;;23.82;100.00;101436.34;2081203;28;20217;-65
2023/07/16 01:14:07;;;;;;;12.87;6.30;;;;;;;23.80;100.00;101433.22;2081586;28;20193;-65
2023/07/16 01:15:08;;;;;;;7.43;6.43;;;;;;;23.81;100.00;101434.78;2077692;28;20196;-65
2023/07/16 01:16:22;;;;;;;10.00;6.20;;;;;;;23.81;100.00;101431.19;2081410;28;20184;-65
2023/07/16 01:17:22;;;;;;;8.03;6.13;;;;;;;23.72;100.00;101432.16;2083632;28;20177;-65
2023/07/16 01:18:23;;;;;;;8.53;6.60;;;;;;;23.71;100.00;101438.31;2087990;28;20313;-65
2023/07/16 01:19:23;;;;;;;8.73;6.07;;;;;;;23.76;100.00;101437.56;2081687;28;20204;-65
2023/07/16 01:20:25;;;;;;;8.77;6.13;;;;;;;23.78;100.00;101435.00;2089761;28;20180;-65
2023/07/16 01:21:49;;;;;;;8.67;6.20;;;;;;;23.48;100.00;101383.59;2081659;28;20578;-65
2023/07/16 01:23:09;;;;;;;7.03;6.10;;;;;;;23.78;100.00;101429.34;2076953;28;20184;-65
2023/07/16 01:24:28;;;;;;;8.83;6.20;;;;;;;23.75;100.00;101436.78;2081422;28;20600;-65
2023/07/16 01:25:52;;;;;;;10.10;6.10;;;;;;;23.68;100.00;101436.47;2081495;28;20185;-65
2023/07/16 01:27:16;;;;;;;8.70;6.17;;;;;;;23.60;100.00;101433.31;2081342;28;20208;-65
2023/07/16 01:28:44;;;;;;;10.20;6.60;;;;;;;23.61;100.00;101431.28;2081083;28;20203;-65
2023/07/16 01:29:54;;;;;;;7.90;5.37;;;;;;;23.61;100.00;101440.56;2081408;28;20299;-65
2023/07/16 01:30:57;;;;;;;13.10;6.20;;;;;;;23.60;100.00;101429.75;2081169;28;20166;-65
2023/07/16 01:32:03;;;;;;;7.93;5.60;;;;;;;23.54;100.00;101418.38;2080716;28;20270;-65
2023/07/16 01:33:04;;;;;;;11.57;6.53;;;;;;;23.47;100.00;101418.84;2081300;28;20221;-65
2023/07/16 01:34:06;;;;;;;9.30;6.37;;;;;;;23.63;100.00;101429.50;2073453;28;20393;-65
2023/07/16 01:35:08;;;;;;;9.27;6.73;;;;;;;23.65;100.00;101426.19;2080507;28;20189;-65
2023/07/16 01:36:09;;;;;;;12.97;6.10;;;;;;;23.67;100.00;101427.22;2081324;28;20189;-65
2023/07/16 01:37:10;;;;;;;9.23;6.03;;;;;;;23.73;100.00;101430.88;2081344;28;20200;-65
2023/07/16 01:38:11;;;;;;;6.43;5.67;;;;;;;23.22;100.00;101357.44;2081365;28;20268;-65
2023/07/16 01:39:12;;;;;;;7.70;5.80;;;;;;;23.65;100.00;101429.00;2081242;28;20195;-65
2023/07/16 01:40:14;;;;;;;6.77;5.73;;;;;;;23.62;100.00;101415.84;2081135;28;20180;-65
2023/07/16 01:41:14;;;;;;;8.00;6.07;;;;;;;23.71;100.00;101435.47;2079841;28;20463;-65
2023/07/16 01:42:14;;;;;;;6.87;5.70;;;;;;;23.73;100.00;101436.53;2073046;28;20675;-66
2023/07/16 01:43:15;;;;;;;8.77;6.00;;;;;;;23.72;100.00;101437.81;2081428;28;20554;-65
2023/07/16 01:44:15;;;;;;;7.20;6.07;;;;;;;23.73;100.00;101441.41;2080637;28;20236;-65
2023/07/16 01:45:16;;;;;;;9.00;5.77;;;;;;;23.72;100.00;101437.81;2080585;28;20730;-65
2023/07/16 01:46:17;;;;;;;8.17;5.73;;;;;;;23.30;100.00;101367.03;2080348;28;20193;-65
2023/07/16 01:47:28;;;;;;;8.10;5.70;;;;;;;22.99;100.00;101323.81;2081255;28;20185;-65
2023/07/16 01:48:30;;;;;;;8.63;5.57;;;;;;;23.72;100.00;101439.84;2081138;28;20439;-66
2023/07/16 01:49:30;;;;;;;7.87;5.90;;;;;;;23.72;100.00;101442.69;2081235;28;20271;-66
2023/07/16 01:50:31;;;;;;;7.10;5.97;;;;;;;23.66;100.00;101437.00;2081210;28;20178;-65
2023/07/16 01:51:31;;;;;;;10.60;6.60;;;;;;;23.65;100.00;101440.31;2079842;28;20728;-65
2023/07/16 01:52:32;;;;;;;9.23;6.33;;;;;;;23.62;100.00;101444.16;2072708;28;20764;-66
2023/07/16 01:53:33;;;;;;;7.10;6.00;;;;;;;22.79;100.00;101321.06;2081629;28;20562;-65
2023/07/16 01:54:33;;;;;;;9.50;5.83;;;;;;;23.59;100.00;101440.28;2081137;28;20726;-65
2023/07/16 01:55:34;;;;;;;11.33;6.30;;;;;;;23.66;100.00;101439.03;2081198;28;20538;-65
2023/07/16 01:56:34;;;;;;;9.33;6.03;;;;;;;23.69;100.00;101438.03;2081033;28;20181;-65
2023/07/16 01:57:34;;;;;;;9.33;5.80;;;;;;;23.67;100.00;101440.59;2081180;28;20271;-65
2023/07/16 01:58:35;;;;;;;9.27;5.77;;;;;;;23.65;100.00;101437.50;2080962;28;20189;-64
2023/07/16 01:59:35;;;;;;;6.80;6.10;;;;;;;23.15;100.00;101363.53;2080992;28;20276;-65
2023/07/16 02:00:36;;;;;;;10.57;6.20;;;;;;;23.68;100.00;101453.44;2080736;28;20196;-65
2023/07/16 02:01:37;;;;;;;6.70;5.53;;;;;;;23.69;100.00;101443.69;2080929;28;20177;-65
2023/07/16 02:02:37;;;;;;;8.97;5.97;;;;;;;23.11;100.00;101351.66;2081029;28;20191;-66
2023/07/16 02:03:37;;;;;;;7.30;5.70;;;;;;;23.66;100.00;101439.81;2081049;28;20185;-65
2023/07/16 02:04:38;;;;;;;10.10;5.97;;;;;;;23.65;100.00;101445.97;2081122;28;20185;-65
2023/07/16 02:05:38;;;;;;;7.47;6.10;;;;;;;23.61;100.00;101431.28;2081053;28;20231;-65
2023/07/16 02:06:39;;;;;;;9.13;6.30;;;;;;;23.53;100.00;101418.88;2088632;28;20274;-65
2023/07/16 02:07:39;;;;;;;8.83;6.00;;;;;;;23.67;100.00;101440.59;2088697;28;20176;-65
2023/07/16 02:08:39;;;;;;;8.07;6.20;;;;;;;23.70;100.00;101445.25;2080967;28;20260;-65
2023/07/16 02:09:40;;;;;;;9.07;6.10;;;;;;;23.68;100.00;101451.41;2080959;28;20206;-65
2023/07/16 02:10:41;;;;;;;7.87;5.80;;;;;;;23.40;100.00;101405.16;2081109;28;20181;-65
2023/07/16 02:11:41;;;;;;;9.83;6.33;;;;;;;23.61;100.00;101440.56;2080745;28;20196;-65
2023/07/16 02:12:41;;;;;;;8.77;5.93;;;;;;;23.32;100.00;101389.13;2080968;28;20196;-65
2023/07/16 02:13:42;;;;;;;8.50;6.13;;;;;;;23.64;100.00;101433.88;2081033;28;20716;-65
2023/07/16 02:14:42;;;;;;;10.57;6.00;;;;;;;23.64;100.00;101444.44;2079945;28;20193;-65
2023/07/16 02:15:43;;;;;;;9.73;5.90;;;;;;;23.61;100.00;101446.22;2078214;28;20177;-65
2023/07/16 02:16:43;;;;;;;8.67;6.47;;;;;;;23.58;100.00;101435.09;2074169;28;20205;-65
2023/07/16 02:17:44;;;;;;;16.20;6.50;;;;;;;23.58;100.00;101441.56;2080937;28;20165;-65
2023/07/16 02:18:45;;;;;;;8.73;6.10;;;;;;;23.51;100.00;101433.53;2081255;28;20173;-65
2023/07/16 02:19:45;;;;;;;12.57;6.90;;;;;;;23.61;100.00;101440.56;2080848;28;20200;-65
2023/07/16 02:20:46;;;;;;;9.37;5.70;;;;;;;23.66;100.00;101437.00;2080944;28;20193;-65
2023/07/16 02:21:46;;;;;;;7.30;5.90;;;;;;;23.69;100.00;101444.47;2080628;28;20200;-65
2023/07/16 02:22:46;;;;;;;10.43;6.07;;;;;;;23.72;100.00;101437.03;2080580;28;20185;-65
2023/07/16 02:23:47;;;;;;;7.47;5.50;;;;;;;23.72;100.00;101449.13;2078078;28;20699;-65
2023/07/16 02:24:47;;;;;;;8.57;6.10;;;;;;;23.68;100.00;101442.13;2074646;28;20572;-65
2023/07/16 02:25:47;;;;;;;9.03;5.50;;;;;;;23.51;100.00;101410.91;2080789;28;20172;-65
2023/07/16 02:26:48;;;;;;;6.87;5.37;;;;;;;23.70;100.00;101448.09;2081182;28;20180;-65
2023/07/16 02:27:48;;;;;;;7.87;5.80;;;;;;;23.70;100.00;101443.19;2081000;28;20259;-64
2023/07/16 02:28:49;;;;;;;7.83;6.17;;;;;;;23.71;100.00;101444.75;2080739;28;20307;-65
2023/07/16 02:29:49;;;;;;;10.30;6.60;;;;;;;23.68;100.00;101450.63;2080792;28;20193;-65
2023/07/16 02:30:50;;;;;;;12.03;6.17;;;;;;;23.62;100.00;101444.16;2080980;28;20259;-65
2023/07/16 02:31:51;;;;;;;8.37;5.83;;;;;;;23.64;100.00;101436.72;2080592;28;20292;-65
2023/07/16 02:32:51;;;;;;;7.47;6.00;;;;;;;23.67;100.00;101454.72;2080657;28;20208;-65
2023/07/16 02:33:52;;;;;;;8.33;5.63;;;;;;;23.66;100.00;101453.19;2080849;28;20212;-65
2023/07/16 02:34:52;;;;;;;7.93;5.73;;;;;;;23.66;100.00;101453.97;2080838;28;20204;-65
2023/07/16 02:35:53;;;;;;;9.63;6.40;;;;;;;23.62;100.00;101459.09;2081121;28;20180;-65
2023/07/16 02:36:53;;;;;;;11.03;6.20;;;;;;;23.66;100.00;101451.16;2080752;28;20188;-65
2023/07/16 02:37:54;;;;;;;10.07;5.83;;;;;;;23.62;100.00;101452.63;2080906;28;20278;-65
2023/07/16 02:38:55;;;;;;;7.70;5.57;;;;;;;23.55;100.00;101434.06;2080755;28;20188;-65
2023/07/16 02:39:55;;;;;;;8.50;5.90;;;;;;;23.59;100.00;101451.59;2080764;28;20193;-65
2023/07/16 02:40:56;;;;;;;10.90;6.60;;;;;;;23.62;100.00;101455.47;2080545;28;20272;-65
2023/07/16 02:41:56;;;;;;;9.17;6.60;;;;;;;22.92;100.00;101338.41;2080869;28;20173;-65
2023/07/16 02:42:56;;;;;;;10.67;6.37;;;;;;;23.64;100.00;101452.94;2080115;28;20192;-65
2023/07/16 02:44:01;;;;;;;15.60;6.40;;;;;;;23.64;100.00;101447.25;2081014;28;20176;-65
2023/07/16 02:45:02;;;;;;;13.13;6.63;;;;;;;22.99;100.00;101361.34;2080793;28;20232;-65
2023/07/16 02:46:02;;;;;;;13.90;6.00;;;;;;;23.65;100.00;101448.81;2080731;28;20276;-65
2023/07/16 02:47:03;;;;;;;7.57;5.70;;;;;;;23.64;100.00;101453.69;2080860;28;20208;-65
2023/07/16 02:48:05;;;;;;;9.60;5.60;;;;;;;23.65;100.00;101460.13;2080933;28;20280;-65
2023/07/16 02:49:06;;;;;;;10.67;6.13;;;;;;;23.67;100.00;101449.84;2080829;28;20659;-65
2023/07/16 02:50:07;;;;;;;8.53;5.73;;;;;;;23.69;100.00;101455.03;2080604;28;20212;-65
2023/07/16 02:51:07;;;;;;;7.50;5.57;;;;;;;23.68;100.00;101445.75;2080350;28;20205;-65
2023/07/16 02:52:07;;;;;;;7.50;5.50;;;;;;;23.70;100.00;101448.84;2080699;28;20180;-65
2023/07/16 02:53:08;;;;;;;8.17;6.07;;;;;;;23.71;100.00;101449.63;2080789;28;20224;-65
2023/07/16 02:54:09;;;;;;;8.27;5.50;;;;;;;22.99;100.00;101347.19;2080015;28;20223;-65
2023/07/16 02:55:09;;;;;;;8.60;5.90;;;;;;;23.63;100.00;101452.13;2078221;28;20275;-65
2023/07/16 02:56:10;;;;;;;11.43;6.30;;;;;;;22.69;100.00;101300.69;2078350;28;20185;-65
2023/07/16 02:57:10;;;;;;;14.07;6.40;;;;;;;23.55;100.00;101430.47;2078659;28;20646;-64
2023/07/16 02:58:10;;;;;;;17.40;6.73;;;;;;;23.63;100.00;101446.47;2078376;28;20192;-65
2023/07/16 02:59:11;;;;;;;14.17;6.97;;;;;;;23.59;100.00;101443.09;2078897;28;20189;-65
2023/07/16 03:00:12;;;;;;;12.07;6.57;;;;;;;23.69;100.00;101461.44;2078698;28;20272;-65
2023/07/16 03:01:12;;;;;;;12.37;6.00;;;;;;;23.71;100.00;101455.28;2078728;28;20189;-65
2023/07/16 03:02:12;;;;;;;16.70;7.23;;;;;;;23.73;100.00;101453.50;2079082;28;20180;-65
2023/07/16 03:03:13;;;;;;;15.73;7.30;;;;;;;23.74;100.00;101454.28;2079043;28;20189;-65
2023/07/16 03:04:13;;;;;;;17.43;7.10;;;;;;;22.94;100.00;101336.63;2078833;28;20716;-65
2023/07/16 03:05:18;;;;;;;13.90;6.57;;;;;;;23.70;100.00;101456.56;2078894;28;20196;-65
2023/07/16 03:06:18;;;;;;;10.03;6.07;;;;;;;23.61;100.00;101442.59;2078543;28;20195;-65
2023/07/16 03:07:19;;;;;;;6.83;6.10;;;;;;;23.73;100.00;101458.38;2078898;28;20199;-65
2023/07/16 03:08:19;;;;;;;8.03;6.00;;;;;;;23.75;100.00;101455.84;2078774;28;20559;-65
2023/07/16 03:09:20;;;;;;;9.00;6.10;;;;;;;23.72;100.00;101460.44;2079776;28;20255;-65
2023/07/16 03:10:21;;;;;;;10.47;6.07;;;;;;;23.73;100.00;101459.16;2078398;28;20177;-65
2023/07/16 03:11:21;;;;;;;7.23;5.40;;;;;;;23.73;100.00;101452.72;2078822;28;20177;-65
2023/07/16 03:12:22;;;;;;;8.43;5.70;;;;;;;23.73;100.00;101450.69;2078439;28;20596;-65
2023/07/16 03:13:22;;;;;;;7.60;5.73;;;;;;;23.74;100.00;101462.78;2084514;28;20729;-65
2023/07/16 03:14:23;;;;;;;9.77;6.07;;;;;;;23.65;100.00;101432.59;2073754;28;20178;-65
2023/07/16 03:15:24;;;;;;;7.47;5.77;;;;;;;23.76;100.00;101463.81;2078877;28;20192;-65
2023/07/16 03:16:24;;;;;;;6.50;5.80;;;;;;;23.72;100.00;101466.09;2078709;28;20208;-65
2023/07/16 03:17:24;;;;;;;7.43;5.70;;;;;;;23.61;100.00;101448.25;2078788;28;20204;-65
2023/07/16 03:18:29;;;;;;;7.10;5.73;;;;;;;23.74;100.00;101459.94;2078680;28;20239;-65
2023/07/16 03:19:29;;;;;;;7.90;5.70;;;;;;;23.49;100.00;101424.75;2078679;28;20651;-65
2023/07/16 03:20:30;;;;;;;6.93;5.90;;;;;;;23.78;100.00;101468.97;2078692;28;20620;-65
2023/07/16 03:21:31;;;;;;;7.57;6.13;;;;;;;23.82;100.00;101466.69;2079394;28;20567;-65
2023/07/16 03:22:31;;;;;;;10.73;6.60;;;;;;;23.75;100.00;101472.81;2078258;28;20250;-65
2023/07/16 03:23:32;;;;;;;8.63;6.57;;;;;;;23.80;100.00;101469.25;2078581;28;20555;-65
2023/07/16 03:24:32;;;;;;;10.00;5.97;;;;;;;23.79;100.00;101467.72;2078162;28;20192;-65
2023/07/16 03:25:33;;;;;;;9.70;6.27;;;;;;;23.82;100.00;101472.34;2078566;28;20762;-65
2023/07/16 03:26:33;;;;;;;9.17;6.20;;;;;;;23.47;100.00;101416.00;2078340;28;20262;-65
2023/07/16 03:27:34;;;;;;;13.67;6.17;;;;;;;23.85;100.00;101469.28;2078393;28;20223;-65
2023/07/16 03:28:34;;;;;;;7.60;6.30;;;;;;;23.80;100.00;101472.09;2078638;28;20180;-66
2023/07/16 03:29:34;;;;;;;11.77;6.10;;;;;;;23.76;100.00;101483.66;2070484;28;20185;-65
2023/07/16 03:30:37;;;;;;;11.40;6.37;;;;;;;23.74;100.00;101469.19;2077123;28;20200;-65
2023/07/16 03:31:37;;;;;;;11.77;6.40;;;;;;;23.72;100.00;101468.16;2078227;28;20188;-65
2023/07/16 03:32:38;;;;;;;10.20;6.20;;;;;;;23.73;100.00;101476.16;2078216;28;20207;-65
2023/07/16 03:33:38;;;;;;;10.03;6.80;;;;;;;23.70;100.00;101476.38;2075423;28;20182;-65
2023/07/16 03:34:38;;;;;;;9.53;6.10;;;;;;;23.72;100.00;101479.47;2073040;28;20200;-65
2023/07/16 03:35:39;;;;;;;11.43;7.23;;;;;;;22.93;100.00;101360.50;2078549;28;20283;-65
2023/07/16 03:36:39;;;;;;;7.57;6.17;;;;;;;23.66;100.00;101478.66;2078328;28;20670;-65
2023/07/16 03:37:40;;;;;;;8.60;6.53;;;;;;;23.67;100.00;101478.16;2078764;28;20566;-65
2023/07/16 03:38:40;;;;;;;7.90;6.50;;;;;;;23.67;100.00;101474.53;2078435;28;20193;-65
2023/07/16 03:39:40;;;;;;;8.37;6.60;;;;;;;23.63;100.00;101474.00;2078503;28;20196;-65
2023/07/16 03:40:47;;;;;;;7.53;6.27;;;;;;;23.57;100.00;101481.66;2078146;28;20697;-65
2023/07/16 03:41:48;;;;;;;8.77;6.10;;;;;;;23.52;100.00;101454.88;2078235;28;20196;-65
2023/07/16 03:42:48;;;;;;;8.73;6.70;;;;;;;23.68;100.00;101476.09;2078089;28;20220;-65
2023/07/16 03:43:48;;;;;;;11.30;7.00;;;;;;;23.71;100.00;101483.59;2078371;28;20313;-65
2023/07/16 03:44:49;;;;;;;9.43;6.73;;;;;;;23.77;100.00;101478.75;2083905;28;20236;-65
2023/07/16 03:45:50;;;;;;;11.43;6.47;;;;;;;23.80;100.00;101474.91;2078249;28;20181;-65
2023/07/16 03:46:50;;;;;;;9.93;6.37;;;;;;;23.84;100.00;101466.97;2078513;28;20184;-65
2023/07/16 03:47:50;;;;;;;7.97;6.30;;;;;;;23.84;100.00;101476.22;2070733;28;20178;-65
2023/07/16 03:48:51;;;;;;;11.67;6.80;;;;;;;23.84;100.00;101484.72;2077450;28;20343;-65
2023/07/16 03:49:51;;;;;;;10.90;6.70;;;;;;;23.91;100.00;101475.78;2074924;28;20300;-65
2023/07/16 03:50:52;;;;;;;8.43;6.50;;;;;;;23.22;100.00;101359.47;2077333;28;20192;-65
2023/07/16 03:51:52;;;;;;;7.80;6.37;;;;;;;23.95;100.00;101475.56;2073444;28;20287;-65
2023/07/16 03:52:53;;;;;;;8.33;5.97;;;;;;;23.58;100.00;101423.78;2078215;28;20626;-65
2023/07/16 03:53:53;;;;;;;9.63;6.70;;;;;;;24.00;100.00;101481.25;2078323;28;20177;-65
2023/07/16 03:54:53;;;;;;;9.23;6.63;;;;;;;24.03;100.00;101487.97;2078597;28;20694;-65
2023/07/16 03:55:54;;;;;;;6.90;6.20;;;;;;;24.04;100.00;101483.84;2070403;28;20493;-65
2023/07/16 03:56:54;;;;;;;7.80;6.30;;;;;;;23.67;100.00;101441.38;2069823;28;20284;-65
2023/07/16 03:57:55;;;;;;;7.93;5.97;;;;;;;24.09;100.00;101489.56;2069729;28;20663;-65
2023/07/16 03:58:55;;;;;;;7.90;6.40;;;;;;;24.11;100.00;101489.81;2075123;28;20189;-65
2023/07/16 03:59:56;;;;;;;10.70;6.23;;;;;;;24.17;100.00;101487.81;2074868;28;20560;-65
2023/07/16 04:00:56;;;;;;;9.23;6.40;;;;;;;24.08;100.00;101468.19;2072390;28;20617;-65
2023/07/16 04:01:56;;;;;;;7.37;6.37;;;;;;;24.20;100.00;101488.88;2078334;28;20185;-65
2023/07/16 04:02:57;;;;;;;12.03;6.83;;;;;;;24.15;100.00;101476.19;2077327;28;20169;-65
2023/07/16 04:03:57;;;;;;;8.60;6.33;;;;;;;24.21;100.00;101479.06;2078053;28;20268;-65
2023/07/16 04:04:58;;;;;;;10.70;6.60;;;;;;;24.22;100.00;101489.13;2070845;28;20189;-66
2023/07/16 04:06:06;;;;;;;8.60;6.30;;;;;;;24.22;100.00;101489.13;2076653;28;20746;-65
2023/07/16 04:07:06;;;;;;;7.93;6.60;;;;;;;24.25;100.00;101491.72;2078284;28;20192;-64
2023/07/16 04:08:08;;;;;;;6.63;6.00;;;;;;;24.15;100.00;101490.38;2078339;28;20232;-65
2023/07/16 04:09:08;;;;;;;8.00;5.93;;;;;;;24.26;100.00;101489.66;2078907;28;20632;-65
2023/07/16 04:10:09;;;;;;;7.03;6.33;;;;;;;24.30;100.00;101493.03;2079917;28;20274;-65
2023/07/16 04:11:09;;;;;;;9.37;6.60;;;;;;;24.32;100.00;101496.13;2079332;28;20282;-65
2023/07/16 04:12:09;;;;;;;7.63;6.00;;;;;;;24.26;100.00;101489.66;2079814;28;20185;-66
2023/07/16 04:13:10;;;;;;;9.87;6.70;;;;;;;24.31;100.00;101495.34;2079984;28;20205;-65
2023/07/16 04:14:10;;;;;;;9.93;6.73;;;;;;;24.34;100.00;101510.56;2079850;28;20285;-65
2023/07/16 04:15:11;;;;;;;9.57;6.50;;;;;;;24.29;100.00;101494.31;2079790;28;20208;-65
2023/07/16 04:16:11;;;;;;;6.87;6.20;;;;;;;23.98;100.00;101452.69;2079887;28;20223;-65
2023/07/16 04:17:12;;;;;;;7.07;6.37;;;;;;;23.39;100.00;101364.00;2079849;28;20226;-65
2023/07/16 04:18:12;;;;;;;7.40;6.00;;;;;;;24.26;100.00;101498.16;2079767;28;20200;-65
2023/07/16 04:19:13;;;;;;;8.70;6.87;;;;;;;24.25;100.00;101507.94;2079903;28;20179;-65
2023/07/16 04:20:13;;;;;;;8.10;6.13;;;;;;;24.18;100.00;101497.84;2079676;28;20189;-65
2023/07/16 04:21:13;;;;;;;9.03;6.27;;;;;;;24.24;100.00;101503.53;2080955;28;20169;-65
2023/07/16 04:22:14;;;;;;;8.17;6.63;;;;;;;24.18;100.00;101492.19;2080714;28;20200;-65
2023/07/16 04:23:14;;;;;;;9.80;6.77;;;;;;;24.29;100.00;101508.47;2080880;28;20252;-65
2023/07/16 04:24:15;;;;;;;8.07;6.30;;;;;;;23.95;100.00;101452.91;2080596;28;20193;-65
2023/07/16 04:25:16;;;;;;;8.13;6.83;;;;;;;24.34;100.00;101502.06;2075445;28;20224;-65
2023/07/16 04:26:16;;;;;;;11.23;6.83;;;;;;;24.38;100.00;101505.44;2076619;28;20470;-65
2023/07/16 04:27:17;;;;;;;9.50;6.60;;;;;;;24.42;100.00;101505.97;2077320;28;20767;-65
2023/07/16 04:28:17;;;;;;;11.53;6.73;;;;;;;24.39;100.00;101504.94;2073375;28;20732;-65
2023/07/16 04:29:18;;;;;;;12.83;6.40;;;;;;;24.42;100.00;101508.81;2079686;28;20205;-65
2023/07/16 04:30:18;;;;;;;11.50;6.90;;;;;;;24.29;100.00;101492.25;2072062;28;20180;-65
2023/07/16 04:31:18;;;;;;;10.00;7.20;;;;;;;24.48;100.00;101510.41;2079322;28;20185;-65
2023/07/16 04:32:19;;;;;;;10.40;6.67;;;;;;;23.87;100.00;101410.13;2079830;28;20185;-65
2023/07/16 04:33:19;;;;;;;6.67;5.77;;;;;;;24.46;100.00;101501.59;2080150;28;20634;-65
2023/07/16 04:34:20;;;;;;;8.83;6.40;;;;;;;24.54;100.00;101511.19;2079990;28;20191;-65
2023/07/16 04:35:20;;;;;;;8.27;6.27;;;;;;;24.57;100.00;101517.91;2080073;28;20749;-66
2023/07/16 04:36:20;;;;;;;8.03;6.80;;;;;;;24.61;100.00;101502.22;2080058;28;20188;-65
2023/07/16 04:37:21;;;;;;;8.10;6.70;;;;;;;24.66;100.00;101512.06;2080056;28;20188;-65
2023/07/16 04:38:21;;;;;;;7.70;6.90;;;;;;;24.56;100.00;101500.13;2080010;28;20609;-66
2023/07/16 04:39:22;;;;;;;7.20;6.40;;;;;;;24.64;100.00;101506.09;2071993;28;20186;-65
2023/07/16 04:40:22;;;;;;;9.20;6.57;;;;;;;24.62;100.00;101509.44;2078816;28;20193;-65
2023/07/16 04:41:22;;;;;;;8.00;6.50;;;;;;;24.59;100.00;101507.63;2079627;28;20204;-65